Time;durP1;ratioP1;P1;durP2;ratioP2;P2;SDS_P1;SDS_P2;PMS_P1;PMS_P2;Temp;Humidity;BMP_temperature;BMP_pressure;BME280_temperature;BME280_humidity;BME280_pressure;Samples;Min_cycle;Max_cycle;Signal;HPM_P1;HPM_P2
2023/03/21 00:02:45;;;;;;;0.40;0.40;;;;;;;24.31;32.84;99476.46;1847935;77;28151;-52
2023/03/21 00:05:33;;;;;;;0.53;0.53;;;;;;;24.29;32.87;99477.25;1838033;77;28188;-52
2023/03/21 00:08:24;;;;;;;0.60;0.60;;;;;;;24.31;32.86;99473.72;1846717;77;28151;-54
2023/03/21 00:11:13;;;;;;;0.57;0.57;;;;;;;24.30;32.85;99480.80;1847364;77;28195;-48
2023/03/21 00:14:02;;;;;;;0.60;0.60;;;;;;;24.28;32.85;99475.57;1856486;77;28142;-51
2023/03/21 00:16:50;;;;;;;1.10;0.62;;;;;;;24.28;32.88;99467.87;1842246;77;28276;-47
2023/03/21 00:19:40;;;;;;;0.40;0.40;;;;;;;24.28;32.89;99473.36;1854182;77;28131;-48
2023/03/21 00:22:29;;;;;;;1.50;0.60;;;;;;;24.27;32.91;99468.40;1855759;77;28147;-50
2023/03/21 00:25:17;;;;;;;0.60;0.50;;;;;;;24.29;32.91;99475.87;1856842;77;28060;-52
2023/03/21 00:28:05;;;;;;;0.75;0.70;;;;;;;24.27;32.92;99469.77;1835100;77;28088;-49
2023/03/21 00:31:00;;;;;;;0.60;0.60;;;;;;;24.27;32.94;99471.14;1840616;76;28111;-49
2023/03/21 00:33:49;;;;;;;0.50;0.50;;;;;;;24.28;32.93;99467.87;1833691;76;28221;-50
2023/03/21 00:36:37;;;;;;;0.65;0.65;;;;;;;24.27;32.92;99459.36;1855227;77;28132;-50
2023/03/21 00:39:27;;;;;;;0.60;0.60;;;;;;;24.27;32.95;99460.73;1849269;76;28126;-51
2023/03/21 00:42:16;;;;;;;0.57;0.57;;;;;;;24.26;32.96;99459.89;1874518;75;28078;-50
2023/03/21 00:45:09;;;;;;;0.40;0.40;;;;;;;24.26;32.95;99458.52;1829759;77;28395;-51
2023/03/21 00:47:56;;;;;;;0.50;0.50;;;;;;;24.26;32.99;99454.40;1837326;77;28226;-50
2023/03/21 00:50:46;;;;;;;0.65;0.60;;;;;;;24.24;32.99;99452.98;1826546;77;28294;-49
2023/03/21 00:53:35;;;;;;;0.60;0.60;;;;;;;24.25;32.99;99457.41;1815643;77;28268;-53
2023/03/21 00:56:23;;;;;;;0.62;0.60;;;;;;;24.25;32.97;99452.72;1791534;77;28363;-49
2023/03/21 00:59:12;;;;;;;0.40;0.40;;;;;;;24.24;33.01;99453.81;1840145;77;28312;-48
2023/03/21 01:02:00;;;;;;;0.72;0.60;;;;;;;24.23;32.98;99465.02;1831078;77;28298;-52
2023/03/21 01:04:49;;;;;;;1.45;0.60;;;;;;;24.24;32.98;99461.21;1829577;77;28316;-50
2023/03/21 01:07:38;;;;;;;0.68;0.68;;;;;;;24.25;32.99;99460.14;1837875;77;28266;-51
2023/03/21 01:10:26;;;;;;;0.60;0.60;;;;;;;24.25;33.02;99458.21;1831921;77;28403;-48
2023/03/21 01:13:16;;;;;;;0.50;0.45;;;;;;;24.25;33.02;99460.14;1841542;77;28234;-51
2023/03/21 01:16:07;;;;;;;1.70;0.45;;;;;;;24.26;33.01;99450.81;1822018;77;28348;-49
2023/03/21 01:18:56;;;;;;;0.60;0.60;;;;;;;24.21;33.08;99458.95;1829135;77;28343;-53
2023/03/21 01:21:44;;;;;;;0.50;0.50;;;;;;;24.23;33.07;99453.51;1833339;77;28288;-51
2023/03/21 01:24:33;;;;;;;1.20;0.60;;;;;;;24.21;33.10;99445.22;1833601;77;28365;-48
2023/03/21 01:27:21;;;;;;;0.50;0.50;;;;;;;24.24;33.05;99447.48;1823126;77;28729;-51
2023/03/21 01:30:11;;;;;;;0.50;0.50;;;;;;;24.23;33.04;99445.27;1830292;77;28242;-49
2023/03/21 01:32:59;;;;;;;0.60;0.60;;;;;;;24.23;33.06;99439.78;1840710;77;28258;-52
2023/03/21 01:35:48;;;;;;;0.30;0.30;;;;;;;24.20;33.08;99436.16;1842220;77;28324;-50
2023/03/21 01:38:36;;;;;;;0.70;0.50;;;;;;;24.22;33.14;99435.39;1833160;77;28324;-53
2023/03/21 01:41:30;;;;;;;0.40;0.40;;;;;;;24.21;33.11;99431.50;1844001;77;28231;-52
2023/03/21 01:44:20;;;;;;;0.40;0.40;;;;;;;24.23;33.11;99427.97;1844601;77;28235;-47
2023/03/21 01:47:09;;;;;;;0.57;0.57;;;;;;;24.20;33.14;99421.62;1841968;77;28316;-48
2023/03/21 01:50:09;;;;;;;0.50;0.50;;;;;;;24.19;33.15;99420.78;1834361;77;28308;-49
2023/03/21 01:53:03;;;;;;;0.45;0.45;;;;;;;24.19;33.18;99415.29;1819116;77;28264;-50
2023/03/21 01:55:53;;;;;;;0.50;0.50;;;;;;;24.18;33.20;99415.55;1825997;77;28280;-53
2023/03/21 01:58:44;;;;;;;0.47;0.47;;;;;;;24.21;33.15;99409.55;1842150;77;28218;-48
2023/03/21 02:01:44;;;;;;;0.40;0.40;;;;;;;24.17;33.18;99415.24;1830391;77;28355;-48
2023/03/21 02:04:38;;;;;;;0.53;0.53;;;;;;;24.19;33.21;99410.34;1826806;77;28255;-52
2023/03/21 02:07:36;;;;;;;0.57;0.57;;;;;;;24.19;33.23;99408.96;1822652;77;28447;-51
2023/03/21 02:10:27;;;;;;;0.50;0.50;;;;;;;24.19;33.23;99403.47;1833452;77;28352;-49
2023/03/21 02:13:17;;;;;;;0.40;0.40;;;;;;;24.17;33.23;99402.36;1821684;77;28239;-49
2023/03/21 02:16:12;;;;;;;0.50;0.50;;;;;;;24.17;33.26;99399.61;1827902;77;28328;-49
2023/03/21 02:19:25;;;;;;;0.53;0.53;;;;;;;24.19;33.23;99397.45;1819757;77;28392;-50
2023/03/21 02:22:32;;;;;;;0.40;0.40;;;;;;;24.18;33.28;99398.52;1831515;76;28436;-49
2023/03/21 02:25:47;;;;;;;0.62;0.62;;;;;;;24.13;33.34;99396.24;1832453;77;28273;-52
2023/03/21 02:28:55;;;;;;;0.45;0.45;;;;;;;24.11;33.40;99398.41;1844622;77;28298;-51
2023/03/21 02:31:47;;;;;;;0.62;0.62;;;;;;;24.11;33.40;99394.28;1821651;77;28300;-51
2023/03/21 02:35:05;;;;;;;0.40;0.40;;;;;;;24.11;33.42;99392.91;1812388;77;28309;-53
2023/03/21 02:38:00;;;;;;;0.45;0.45;;;;;;;24.14;33.40;99386.91;1824477;77;28283;-52
2023/03/21 02:40:53;;;;;;;0.60;0.60;;;;;;;24.10;33.43;99381.63;1838189;77;28223;-53
2023/03/21 02:43:46;;;;;;;0.40;0.40;;;;;;;24.12;33.45;99378.09;1816552;77;28331;-48
2023/03/21 02:46:40;;;;;;;2.10;0.37;;;;;;;24.11;33.39;99377.82;1811598;78;31253;-48
2023/03/21 02:49:37;;;;;;;0.60;0.60;;;;;;;24.12;33.40;99376.19;1815978;77;28312;-47
2023/03/21 02:52:28;;;;;;;0.40;0.40;;;;;;;24.11;33.41;99378.63;1821726;77;28207;-52
2023/03/21 02:55:26;;;;;;;0.50;0.50;;;;;;;24.13;33.40;99372.91;1812189;77;28259;-49
2023/03/21 02:58:19;;;;;;;0.40;0.40;;;;;;;24.12;33.43;99373.45;1844136;76;28212;-50
2023/03/21 03:01:08;;;;;;;0.50;0.50;;;;;;;24.13;33.43;99366.05;1857301;76;28311;-52
2023/03/21 03:03:59;;;;;;;0.45;0.45;;;;;;;24.13;33.39;99369.64;1867197;76;28107;-53
2023/03/21 03:07:10;;;;;;;0.45;0.45;;;;;;;24.14;33.35;99363.05;1868316;76;28636;-51
2023/03/21 03:10:07;;;;;;;0.80;0.50;;;;;;;24.15;33.36;99363.89;1853179;76;28096;-53
2023/03/21 03:13:24;;;;;;;0.42;0.42;;;;;;;24.11;33.41;99362.73;1863891;76;28209;-53
2023/03/21 03:16:35;;;;;;;1.60;0.50;;;;;;;24.10;33.39;99359.14;1864176;75;28233;-50
2023/03/21 03:19:35;;;;;;;0.33;0.33;;;;;;;24.08;33.46;99360.47;1868912;76;28160;-50
2023/03/21 03:22:27;;;;;;;0.50;0.50;;;;;;;24.05;33.44;99361.77;1846742;76;28040;-50
2023/03/21 03:25:19;;;;;;;0.47;0.47;;;;;;;24.07;33.45;99360.16;1850213;76;28132;-51
2023/03/21 03:28:11;;;;;;;0.50;0.50;;;;;;;24.10;33.43;99371.49;1851882;76;28224;-49
2023/03/21 03:31:02;;;;;;;0.50;0.50;;;;;;;24.08;33.45;99370.07;1829968;77;28257;-50
2023/03/21 03:33:54;;;;;;;0.50;0.50;;;;;;;24.09;33.44;99373.09;1868893;75;28091;-52
2023/03/21 03:36:50;;;;;;;0.40;0.40;;;;;;;24.12;33.44;99369.86;1845355;76;28146;-54
2023/03/21 03:39:46;;;;;;;0.47;0.47;;;;;;;24.13;33.43;99370.17;1864969;76;28228;-53
2023/03/21 03:42:56;;;;;;;0.50;0.47;;;;;;;24.13;33.39;99375.13;1868894;76;28104;-49
2023/03/21 03:45:51;;;;;;;0.55;0.47;;;;;;;24.11;33.41;99369.02;1858011;75;28141;-52
2023/03/21 03:48:45;;;;;;;0.40;0.40;;;;;;;24.10;33.43;99367.38;1844020;77;28116;-50
2023/03/21 03:51:40;;;;;;;0.47;0.47;;;;;;;24.10;33.40;99374.23;1847298;77;28116;-49
2023/03/21 03:54:38;;;;;;;0.62;0.62;;;;;;;24.10;33.35;99372.87;1831791;77;28333;-51
2023/03/21 03:57:29;;;;;;;0.78;0.78;;;;;;;24.10;33.34;99378.89;1840194;76;28162;-50
2023/03/21 04:00:19;;;;;;;0.55;0.55;;;;;;;24.09;33.31;99379.42;1866767;76;28157;-54
2023/03/21 04:03:11;;;;;;;0.47;0.47;;;;;;;24.09;33.29;99379.42;1836734;77;28036;-51
2023/03/21 04:06:00;;;;;;;0.57;0.57;;;;;;;24.08;33.33;99377.77;1844049;77;28416;-52
2023/03/21 04:08:49;;;;;;;0.70;0.70;;;;;;;24.10;33.24;99378.35;1839164;76;28196;-48
2023/03/21 04:11:38;;;;;;;0.70;0.50;;;;;;;24.11;33.23;99372.33;1846555;77;28133;-50
2023/03/21 04:14:26;;;;;;;0.50;0.50;;;;;;;24.10;33.24;99374.23;1849594;77;28210;-49
2023/03/21 04:17:15;;;;;;;0.50;0.50;;;;;;;24.11;33.19;99375.08;1866750;76;28101;-53
2023/03/21 04:20:07;;;;;;;0.40;0.40;;;;;;;24.09;33.24;99372.56;1865626;76;28158;-50
2023/03/21 04:22:56;;;;;;;1.10;0.65;;;;;;;24.09;33.23;99375.30;1863787;74;28084;-55
2023/03/21 04:25:46;;;;;;;0.50;0.50;;;;;;;24.10;33.23;99378.89;1856568;76;28189;-48
2023/03/21 04:28:35;;;;;;;0.40;0.40;;;;;;;24.09;33.22;99381.33;1858448;76;28052;-47
2023/03/21 04:31:34;;;;;;;0.50;0.50;;;;;;;24.09;33.19;99379.42;1853387;75;28068;-51
2023/03/21 04:34:29;;;;;;;0.50;0.50;;;;;;;24.06;33.21;99381.31;1868461;76;28201;-53
2023/03/21 04:37:22;;;;;;;0.50;0.50;;;;;;;24.07;33.18;99383.48;1855729;76;28173;-51
2023/03/21 04:40:16;;;;;;;1.27;0.60;;;;;;;24.04;33.21;99387.52;1856899;77;28147;-49
2023/03/21 04:43:02;;;;;;;0.47;0.47;;;;;;;24.05;33.25;99385.92;1868543;76;28067;-51
2023/03/21 04:45:52;;;;;;;0.90;0.65;;;;;;;24.05;33.23;99391.41;1847259;75;28071;-48
2023/03/21 04:48:40;;;;;;;0.65;0.65;;;;;;;24.03;33.20;99388.09;1854147;76;28093;-51
2023/03/21 04:51:29;;;;;;;0.75;0.75;;;;;;;24.02;33.21;99386.41;1876206;76;28115;-52
2023/03/21 04:54:19;;;;;;;0.47;0.47;;;;;;;24.04;33.14;99388.36;1861052;76;28177;-50
2023/03/21 04:57:08;;;;;;;0.60;0.60;;;;;;;24.05;33.23;99385.09;1866234;76;28121;-50
2023/03/21 04:59:56;;;;;;;0.50;0.50;;;;;;;24.04;33.15;99385.62;1858140;76;28138;-50
2023/03/21 05:02:45;;;;;;;0.60;0.60;;;;;;;24.04;33.17;99385.62;1876343;76;28056;-50
2023/03/21 05:05:35;;;;;;;0.50;0.50;;;;;;;24.04;33.15;99373.80;1794957;78;28191;-49
2023/03/21 05:08:24;;;;;;;0.50;0.50;;;;;;;24.03;33.22;99373.00;1811324;78;28253;-49
2023/03/21 05:11:13;;;;;;;0.57;0.57;;;;;;;24.05;33.30;99381.81;1815933;78;28332;-50
2023/03/21 05:14:02;;;;;;;0.50;0.50;;;;;;;24.04;33.32;99388.89;1821374;78;28889;-53
2023/03/21 05:16:55;;;;;;;0.57;0.57;;;;;;;24.05;33.33;99394.69;1814153;78;28388;-51
2023/03/21 05:19:43;;;;;;;0.60;0.60;;;;;;;24.05;33.31;99390.04;1817223;78;28347;-52
2023/03/21 05:22:39;;;;;;;0.68;0.68;;;;;;;24.03;33.34;99391.36;1812891;78;28312;-50
2023/03/21 05:25:34;;;;;;;0.35;0.35;;;;;;;24.02;33.36;99389.16;1868993;75;33903;-52
2023/03/21 05:28:30;;;;;;;0.42;0.42;;;;;;;24.02;33.39;99392.42;1863178;75;30235;-50
2023/03/21 05:31:15;;;;;;;0.50;0.50;;;;;;;24.01;33.36;99400.39;1880535;75;28093;-50
2023/03/21 05:34:03;;;;;;;0.50;0.50;;;;;;;23.98;33.46;99407.73;1869590;75;28064;-50
2023/03/21 05:36:51;;;;;;;0.60;0.60;;;;;;;24.01;33.45;99402.56;1865856;75;28104;-50
2023/03/21 05:39:40;;;;;;;0.30;0.30;;;;;;;24.03;33.37;99409.20;1835068;77;28066;-52
2023/03/21 05:42:30;;;;;;;3.15;0.70;;;;;;;24.02;33.34;99401.50;1812738;78;28270;-47
2023/03/21 05:45:19;;;;;;;0.50;0.50;;;;;;;24.00;33.37;99405.03;1809862;78;28960;-52
2023/03/21 05:48:09;;;;;;;0.45;0.45;;;;;;;24.01;33.40;99405.87;1815117;78;28323;-47
2023/03/21 05:51:00;;;;;;;0.47;0.47;;;;;;;24.01;33.44;99402.56;1820127;77;28592;-52
2023/03/21 05:53:48;;;;;;;0.60;0.60;;;;;;;24.00;33.46;99399.55;1857066;76;28394;-50
2023/03/21 05:56:37;;;;;;;0.50;0.50;;;;;;;23.99;33.46;99409.41;1865780;75;28128;-47
2023/03/21 05:59:27;;;;;;;0.70;0.70;;;;;;;23.99;33.48;99421.75;1853813;76;28063;-52
2023/03/21 06:02:17;;;;;;;0.47;0.47;;;;;;;23.98;33.52;99427.77;1861125;75;32924;-51
2023/03/21 06:05:06;;;;;;;0.40;0.40;;;;;;;23.95;33.54;99431.00;1852905;76;28193;-50
2023/03/21 06:07:55;;;;;;;0.50;0.50;;;;;;;23.97;33.63;99428.00;1867335;76;28172;-51
2023/03/21 06:10:44;;;;;;;0.60;0.60;;;;;;;24.02;33.50;99429.47;1868406;76;28143;-50
2023/03/21 06:13:33;;;;;;;0.78;0.70;;;;;;;24.00;33.50;99426.98;1846268;75;28174;-50
2023/03/21 06:16:22;;;;;;;1.10;1.02;;;;;;;23.94;33.16;99436.17;1867699;76;28107;-50
2023/03/21 06:19:11;;;;;;;0.85;0.75;;;;;;;23.84;32.46;99431.05;1868993;76;28120;-49
2023/03/21 06:22:04;;;;;;;0.72;0.72;;;;;;;23.86;32.78;99433.00;1848374;76;28177;-50
2023/03/21 06:24:54;;;;;;;0.70;0.70;;;;;;;23.87;32.95;99430.56;1855757;76;28174;-52
2023/03/21 06:27:42;;;;;;;0.80;0.80;;;;;;;23.91;33.07;99431.73;1852499;76;28149;-49
2023/03/21 06:30:31;;;;;;;1.10;1.10;;;;;;;23.92;33.15;99438.34;1863057;76;28120;-51
2023/03/21 06:33:21;;;;;;;0.80;0.80;;;;;;;23.82;32.22;99427.19;1860510;76;28155;-50
2023/03/21 06:36:10;;;;;;;0.90;0.90;;;;;;;23.83;32.27;99438.97;1848756;76;28181;-54
2023/03/21 06:38:59;;;;;;;1.30;1.00;;;;;;;23.76;32.46;99426.77;1857308;76;28051;-53
2023/03/21 06:41:48;;;;;;;0.80;0.80;;;;;;;23.80;32.70;99431.25;1863848;76;28146;-49
2023/03/21 06:44:37;;;;;;;1.10;1.10;;;;;;;23.80;32.34;99440.84;1868923;76;28137;-54
2023/03/21 06:47:27;;;;;;;2.08;0.80;;;;;;;23.78;32.13;99436.95;1848360;76;28202;-50
2023/03/21 06:50:16;;;;;;;0.80;0.80;;;;;;;23.78;32.44;99433.41;1853758;75;28578;-53
2023/03/21 06:53:05;;;;;;;0.80;0.80;;;;;;;23.80;32.76;99439.48;1862118;76;28095;-51
2023/03/21 06:55:56;;;;;;;0.72;0.72;;;;;;;23.82;32.95;99436.78;1855402;76;28066;-51
2023/03/21 06:58:45;;;;;;;0.75;0.75;;;;;;;23.82;33.10;99444.17;1865698;75;28105;-53
2023/03/21 07:01:35;;;;;;;1.65;1.05;;;;;;;23.84;33.15;99443.39;1866711;76;28179;-51
2023/03/21 07:04:25;;;;;;;0.98;0.98;;;;;;;23.81;33.28;99445.23;1863645;76;28169;-53
2023/03/21 07:07:15;;;;;;;1.20;0.72;;;;;;;23.84;33.30;99446.13;1863911;76;28150;-49
2023/03/21 07:10:05;;;;;;;0.70;0.70;;;;;;;23.86;33.37;99437.12;1867731;76;28159;-53
2023/03/21 07:12:55;;;;;;;1.10;1.00;;;;;;;23.81;33.41;99428.25;1851846;76;28093;-53
2023/03/21 07:15:44;;;;;;;0.78;0.78;;;;;;;23.90;33.37;99443.24;1844198;76;28236;-52
2023/03/21 07:18:33;;;;;;;0.80;0.80;;;;;;;23.89;33.38;99436.64;1858995;76;28118;-50
2023/03/21 07:21:22;;;;;;;0.75;0.75;;;;;;;23.86;33.45;99435.22;1868526;76;28192;-51
2023/03/21 07:24:10;;;;;;;1.50;0.72;;;;;;;23.90;33.46;99432.80;1868425;74;28198;-52
2023/03/21 07:26:59;;;;;;;0.90;0.90;;;;;;;23.85;33.50;99436.27;1854587;76;28122;-53
2023/03/21 07:29:49;;;;;;;0.80;0.80;;;;;;;23.86;33.53;99430.26;1863182;75;28101;-50
2023/03/21 07:32:39;;;;;;;0.90;0.80;;;;;;;23.86;33.53;99422.87;1848119;74;28118;-53
2023/03/21 07:35:27;;;;;;;0.70;0.70;;;;;;;23.88;33.50;99424.83;1858077;76;28140;-53
2023/03/21 07:38:16;;;;;;;0.80;0.80;;;;;;;23.89;33.49;99424.30;1864074;76;28114;-53
2023/03/21 07:41:05;;;;;;;0.80;0.60;;;;;;;23.91;33.49;99419.39;1859756;76;28201;-54
2023/03/21 07:43:54;;;;;;;1.00;0.80;;;;;;;23.90;33.53;99425.41;1865643;76;31010;-53
2023/03/21 07:46:44;;;;;;;1.17;0.70;;;;;;;23.87;33.64;99423.70;1858173;76;28108;-53
2023/03/21 07:49:33;;;;;;;0.70;0.70;;;;;;;23.87;33.63;99420.97;1870505;76;28139;-51
2023/03/21 07:52:21;;;;;;;4.12;0.88;;;;;;;23.87;33.69;99419.59;1871296;75;29193;-50
2023/03/21 07:55:10;;;;;;;0.88;0.78;;;;;;;23.88;33.70;99419.88;1870256;76;28407;-53
2023/03/21 07:57:58;;;;;;;0.75;0.62;;;;;;;23.90;33.68;99422.66;1857861;76;28179;-52
2023/03/21 08:00:47;;;;;;;0.80;0.80;;;;;;;23.88;33.78;99426.20;1874480;75;28156;-53
2023/03/21 08:03:36;;;;;;;1.57;0.62;;;;;;;23.87;33.70;99423.70;1856312;76;28198;-53
2023/03/21 08:06:28;;;;;;;1.17;0.63;;;;;;;23.90;33.41;99425.41;1864463;76;28052;-52
2023/03/21 08:09:16;;;;;;;1.62;0.80;;;;;;;23.90;33.65;99416.34;1867664;76;28190;-53
2023/03/21 08:12:07;;;;;;;0.90;0.90;;;;;;;23.91;33.64;99422.13;1874794;76;28678;-50
2023/03/21 08:14:55;;;;;;;0.80;0.80;;;;;;;23.92;33.63;99426.55;1864010;76;28113;-55
2023/03/21 08:17:46;;;;;;;0.80;0.80;;;;;;;23.86;33.76;99424.77;1868986;76;28412;-49
2023/03/21 08:20:35;;;;;;;0.60;0.60;;;;;;;23.82;33.97;99423.07;1852666;75;28239;-51
2023/03/21 08:23:24;;;;;;;0.90;0.90;;;;;;;23.79;34.03;99426.83;1874139;76;28087;-53
2023/03/21 08:26:17;;;;;;;1.27;0.80;;;;;;;23.78;34.00;99417.75;1859081;76;28189;-52
2023/03/21 08:29:03;;;;;;;1.90;0.78;;;;;;;23.73;34.11;99415.47;1864306;76;28169;-55
2023/03/21 08:31:51;;;;;;;0.65;0.65;;;;;;;23.70;34.17;99424.17;1877797;76;28155;-50
2023/03/21 08:34:41;;;;;;;1.37;0.80;;;;;;;23.68;34.27;99417.58;1873072;76;28149;-54
2023/03/21 08:37:30;;;;;;;0.60;0.60;;;;;;;23.67;34.30;99424.13;1863749;76;28677;-50
2023/03/21 08:40:19;;;;;;;0.70;0.70;;;;;;;23.66;34.34;99409.30;1870702;76;28062;-51
2023/03/21 08:43:08;;;;;;;1.25;0.70;;;;;;;23.70;34.34;99417.31;1857354;76;28114;-51
2023/03/21 08:45:57;;;;;;;0.50;0.50;;;;;;;23.70;34.27;99415.95;1847840;76;28219;-50
2023/03/21 08:48:45;;;;;;;0.60;0.60;;;;;;;23.69;34.36;99417.84;1867921;76;28161;-54
2023/03/21 08:51:36;;;;;;;0.60;0.60;;;;;;;23.71;34.30;99414.89;1863513;76;28259;-53
2023/03/21 08:54:25;;;;;;;0.70;0.70;;;;;;;23.71;34.35;99412.14;1873770;74;28103;-53
2023/03/21 08:57:13;;;;;;;0.60;0.60;;;;;;;23.72;34.37;99408.30;1859144;76;28180;-53
2023/03/21 09:00:08;;;;;;;0.50;0.50;;;;;;;23.75;34.32;99414.16;1870476;76;28071;-52
2023/03/21 09:02:54;;;;;;;0.68;0.68;;;;;;;23.77;34.28;99410.62;1867196;75;28214;-53
2023/03/21 09:05:49;;;;;;;1.60;0.55;;;;;;;23.81;34.31;99416.44;1879645;75;28014;-51
2023/03/21 09:08:33;;;;;;;0.98;0.88;;;;;;;23.74;34.33;99402.03;1881069;75;28446;-50
2023/03/21 09:11:22;;;;;;;0.62;0.62;;;;;;;23.81;34.31;99408.20;1853951;76;28124;-52
2023/03/21 09:14:10;;;;;;;0.60;0.60;;;;;;;23.80;34.39;99404.66;1855223;76;28168;-48
2023/03/21 09:16:59;;;;;;;2.30;0.78;;;;;;;23.81;34.43;99405.47;1861413;75;28270;-52
2023/03/21 09:19:48;;;;;;;0.57;0.57;;;;;;;23.81;34.43;99403.56;1877552;75;28139;-52
2023/03/21 09:22:38;;;;;;;0.70;0.70;;;;;;;23.81;34.46;99403.56;1877174;75;38520;-52
2023/03/21 09:25:29;;;;;;;1.70;0.72;;;;;;;23.82;34.43;99400.28;1877983;76;28146;-48
2023/03/21 09:28:17;;;;;;;1.10;0.60;;;;;;;23.84;34.40;99399.50;1876620;76;28229;-52
2023/03/21 09:31:10;;;;;;;2.20;0.60;;;;;;;23.85;34.41;99392.95;1874553;76;36369;-53
2023/03/21 09:33:57;;;;;;;0.70;0.70;;;;;;;23.85;34.39;99397.88;1871344;76;28169;-52
2023/03/21 09:36:47;;;;;;;0.60;0.60;;;;;;;23.83;34.44;99389.59;1877205;76;28232;-50
2023/03/21 09:39:35;;;;;;;0.60;0.60;;;;;;;23.82;34.45;99386.04;1869908;75;28189;-52
2023/03/21 09:42:33;;;;;;;0.90;0.90;;;;;;;23.83;34.44;99381.36;1868655;75;28054;-53
2023/03/21 09:45:30;;;;;;;0.70;0.70;;;;;;;23.83;34.45;99384.10;1862723;76;28259;-51
2023/03/21 09:48:28;;;;;;;0.70;0.70;;;;;;;23.83;34.44;99383.57;1861772;76;28128;-47
2023/03/21 09:51:16;;;;;;;0.80;0.80;;;;;;;23.81;34.47;99374.77;1849602;76;28205;-50
2023/03/21 09:54:07;;;;;;;0.70;0.70;;;;;;;23.83;34.43;99381.36;1852425;76;28173;-51
2023/03/21 09:56:58;;;;;;;0.60;0.60;;;;;;;23.81;34.44;99379.41;1842433;76;28076;-50
2023/03/21 09:59:48;;;;;;;0.60;0.60;;;;;;;23.82;34.44;99375.06;1856718;77;28053;-51
2023/03/21 10:02:39;;;;;;;0.77;0.70;;;;;;;23.82;34.49;99381.09;1860939;76;28126;-47
2023/03/21 10:05:31;;;;;;;0.72;0.72;;;;;;;23.82;34.45;99368.74;1852765;77;28048;-53
2023/03/21 10:08:29;;;;;;;0.68;0.68;;;;;;;23.83;34.42;99358.05;1854946;75;28185;-50
2023/03/21 10:11:21;;;;;;;0.60;0.60;;;;;;;23.82;34.40;99359.14;1860164;76;28116;-53
2023/03/21 10:14:15;;;;;;;0.70;0.70;;;;;;;23.81;34.49;99356.09;1852152;76;28141;-50
2023/03/21 10:17:06;;;;;;;0.68;0.68;;;;;;;23.83;34.45;99363.53;1846799;76;28179;-50
2023/03/21 10:20:15;;;;;;;4.30;0.70;;;;;;;23.83;34.41;99353.40;1844578;76;28165;-53
2023/03/21 10:23:07;;;;;;;0.55;0.55;;;;;;;23.83;34.42;99343.80;1847972;76;28204;-54
2023/03/21 10:25:58;;;;;;;0.70;0.70;;;;;;;23.81;34.46;99336.36;1868853;76;32004;-50
2023/03/21 10:28:48;;;;;;;0.57;0.57;;;;;;;23.79;34.46;99330.29;1857219;77;33978;-53
2023/03/21 10:31:37;;;;;;;0.62;0.60;;;;;;;23.81;34.43;99336.36;1851194;76;28177;-52
2023/03/21 10:34:38;;;;;;;0.93;0.60;;;;;;;23.82;34.42;99324.32;1826156;78;28142;-51
2023/03/21 10:37:27;;;;;;;0.80;0.70;;;;;;;23.84;34.41;99326.27;1854767;77;28153;-52
2023/03/21 10:40:17;;;;;;;0.70;0.70;;;;;;;23.83;34.39;99323.22;1853889;77;28100;-54
2023/03/21 10:43:36;;;;;;;1.70;0.90;;;;;;;23.84;34.39;99322.69;1843883;77;28094;-51
2023/03/21 10:46:22;;;;;;;0.82;0.70;;;;;;;23.83;34.40;99316.37;1826067;78;28264;-50
2023/03/21 10:49:14;;;;;;;0.78;0.78;;;;;;;23.81;34.43;99313.04;1850981;76;28173;-53
2023/03/21 10:52:05;;;;;;;0.60;0.60;;;;;;;23.81;34.42;99303.44;1826191;77;28340;-50
2023/03/21 10:55:05;;;;;;;0.50;0.50;;;;;;;23.82;34.44;99305.12;1861702;76;28173;-50
2023/03/21 10:57:57;;;;;;;0.47;0.47;;;;;;;23.83;34.38;99302.66;1868626;76;28144;-53
2023/03/21 11:00:48;;;;;;;0.62;0.62;;;;;;;23.82;34.39;99308.39;1868864;76;28088;-54
2023/03/21 11:03:45;;;;;;;0.68;0.68;;;;;;;23.82;34.39;99303.75;1849093;76;28138;-52
2023/03/21 11:06:37;;;;;;;0.45;0.45;;;;;;;23.82;34.37;99302.38;1868981;76;28115;-53
2023/03/21 11:09:27;;;;;;;0.63;0.60;;;;;;;23.86;34.42;99298.58;1857093;77;28134;-50
2023/03/21 11:12:18;;;;;;;0.60;0.60;;;;;;;23.85;34.36;99294.19;1868923;76;28119;-48
2023/03/21 11:15:38;;;;;;;0.60;0.60;;;;;;;23.86;34.38;99291.73;1849860;76;28195;-53
2023/03/21 11:18:29;;;;;;;0.47;0.47;;;;;;;23.86;34.37;99275.27;1850899;76;28060;-49
2023/03/21 11:21:21;;;;;;;0.62;0.62;;;;;;;23.84;34.37;99270.04;1856978;77;28056;-52
2023/03/21 11:24:12;;;;;;;0.40;0.40;;;;;;;23.87;34.39;99276.41;1868801;76;28185;-52
2023/03/21 11:27:02;;;;;;;0.60;0.60;;;;;;;23.88;34.34;99271.20;1837285;77;28185;-50
2023/03/21 11:29:52;;;;;;;0.55;0.55;;;;;;;23.91;34.29;99274.83;1839859;77;28182;-52
2023/03/21 11:32:42;;;;;;;1.80;0.53;;;;;;;23.92;34.27;99272.92;1856969;77;28134;-52
2023/03/21 11:35:36;;;;;;;0.65;0.60;;;;;;;23.93;34.26;99270.45;1846389;76;28190;-47
2023/03/21 11:38:28;;;;;;;0.70;0.70;;;;;;;23.92;34.24;99266.06;1868742;76;28104;-51
2023/03/21 11:41:31;;;;;;;0.55;0.55;;;;;;;23.91;34.26;99262.48;1868746;76;28056;-50
2023/03/21 11:44:26;;;;;;;0.50;0.50;;;;;;;23.88;34.33;99253.90;1855574;76;28146;-53
2023/03/21 11:47:14;;;;;;;1.02;0.65;;;;;;;23.88;34.31;99246.51;1866762;76;28099;-52
2023/03/21 11:50:04;;;;;;;1.50;0.75;;;;;;;23.87;34.33;99231.15;1865904;76;28057;-54
2023/03/21 11:52:56;;;;;;;0.53;0.53;;;;;;;23.89;34.33;99225.41;1843312;76;28175;-49
2023/03/21 11:56:04;;;;;;;1.60;0.70;;;;;;;23.91;34.29;99224.07;1851270;76;28072;-50
2023/03/21 11:59:10;;;;;;;0.60;0.50;;;;;;;23.89;34.26;99221.28;1849788;76;28119;-48
2023/03/21 12:02:36;;;;;;;1.60;0.60;;;;;;;23.90;34.26;99218.81;1847893;76;28146;-53
2023/03/21 12:05:30;;;;;;;0.40;0.40;;;;;;;23.88;34.33;99211.38;1868880;76;28156;-51
2023/03/21 12:08:33;;;;;;;0.60;0.60;;;;;;;23.85;34.37;99196.81;1868923;76;28094;-52
2023/03/21 12:11:25;;;;;;;0.60;0.60;;;;;;;23.88;34.28;99199.03;1868697;76;28040;-52
2023/03/21 12:14:16;;;;;;;0.60;0.50;;;;;;;23.89;34.33;99189.73;1868846;76;28177;-51
2023/03/21 12:17:13;;;;;;;0.50;0.50;;;;;;;23.90;34.32;99181.25;1861932;76;28149;-49
2023/03/21 12:20:14;;;;;;;0.70;0.70;;;;;;;23.90;34.27;99175.77;1850608;76;28133;-52
2023/03/21 12:23:28;;;;;;;0.50;0.50;;;;;;;23.91;34.26;99173.86;1868910;76;28149;-49
2023/03/21 12:26:31;;;;;;;0.78;0.72;;;;;;;23.86;34.32;99162.27;1846552;76;28107;-53
2023/03/21 12:29:28;;;;;;;0.50;0.50;;;;;;;23.88;34.33;99153.77;1868844;76;28130;-48
2023/03/21 12:32:38;;;;;;;0.57;0.57;;;;;;;23.88;34.30;99140.89;1852910;77;28186;-50
2023/03/21 12:35:29;;;;;;;0.50;0.50;;;;;;;23.91;34.26;99134.08;1860765;76;28181;-53
2023/03/21 12:38:32;;;;;;;0.50;0.50;;;;;;;23.91;34.29;99128.05;1856978;77;28556;-52
2023/03/21 12:41:41;;;;;;;0.40;0.40;;;;;;;23.93;34.26;99126.42;1854051;76;28084;-53
2023/03/21 12:44:34;;;;;;;0.60;0.60;;;;;;;23.92;34.23;99122.03;1841853;77;28087;-51
2023/03/21 12:47:26;;;;;;;0.50;0.50;;;;;;;23.87;34.29;99119.21;1835934;77;28072;-52
2023/03/21 12:50:26;;;;;;;0.60;0.60;;;;;;;23.87;34.29;99115.94;1856809;77;28069;-52
2023/03/21 12:53:49;;;;;;;0.65;0.65;;;;;;;23.92;34.24;99113.23;1871971;75;28204;-51
2023/03/21 12:56:56;;;;;;;0.50;0.50;;;;;;;23.92;34.24;99111.87;1884451;75;28139;-51
2023/03/21 12:59:47;;;;;;;0.50;0.50;;;;;;;23.90;34.25;99107.18;1884708;75;28067;-49
2023/03/21 13:02:50;;;;;;;0.55;0.55;;;;;;;23.89;34.33;99096.47;1884548;75;28110;-52
2023/03/21 13:05:42;;;;;;;0.60;0.60;;;;;;;23.90;34.28;99103.06;1869490;75;28063;-52
2023/03/21 13:08:36;;;;;;;0.57;0.57;;;;;;;23.91;34.25;99099.78;1864447;75;28089;-52
2023/03/21 13:11:28;;;;;;;0.60;0.60;;;;;;;23.92;34.24;99086.37;1854172;75;28226;-49
2023/03/21 13:14:23;;;;;;;0.57;0.57;;;;;;;23.91;34.26;99080.05;1874394;75;28107;-51
2023/03/21 13:17:14;;;;;;;0.60;0.60;;;;;;;23.94;34.24;99077.34;1871273;75;28108;-51
2023/03/21 13:20:09;;;;;;;0.57;0.57;;;;;;;23.94;34.23;99077.34;1852447;77;28181;-50
2023/03/21 13:22:57;;;;;;;0.40;0.40;;;;;;;23.95;34.24;99080.36;1883214;75;28552;-52
2023/03/21 13:25:52;;;;;;;0.75;0.75;;;;;;;23.93;34.19;99073.77;1884458;75;38392;-51
2023/03/21 13:28:42;;;;;;;0.62;0.62;;;;;;;23.91;34.29;99064.96;1884365;75;28202;-50
2023/03/21 13:31:31;;;;;;;0.45;0.45;;;;;;;23.96;34.20;99058.71;1884412;75;28059;-51
2023/03/21 13:34:22;;;;;;;0.55;0.55;;;;;;;23.97;34.15;99057.08;1874525;75;28244;-52